sensor_id;sensor_type;location;lat;lon;timestamp;P1;durP1;ratioP1;P2;durP2;ratioP2
75689;SDS011;64303;53.118;9.044;2023-04-25T00:00:14;7.78;;;7.18;;
75689;SDS011;64303;53.118;9.044;2023-04-25T00:03:02;11.48;;;8.52;;
75689;SDS011;64303;53.118;9.044;2023-04-25T00:05:30;12.52;;;9.38;;
75689;SDS011;64303;53.118;9.044;2023-04-25T00:07:57;10.82;;;9.48;;
75689;SDS011;64303;53.118;9.044;2023-04-25T00:10:24;13.73;;;8.30;;
75689;SDS011;64303;53.118;9.044;2023-04-25T00:12:52;8.98;;;7.03;;
75689;SDS011;64303;53.118;9.044;2023-04-25T00:15:19;10.93;;;9.90;;
75689;SDS011;64303;53.118;9.044;2023-04-25T00:17:47;13.82;;;10.15;;
75689;SDS011;64303;53.118;9.044;2023-04-25T00:20:13;9.48;;;7.88;;
75689;SDS011;64303;53.118;9.044;2023-04-25T00:22:40;14.20;;;7.85;;
75689;SDS011;64303;53.118;9.044;2023-04-25T00:25:07;14.93;;;7.72;;
75689;SDS011;64303;53.118;9.044;2023-04-25T00:27:34;14.35;;;9.13;;
75689;SDS011;64303;53.118;9.044;2023-04-25T00:30:02;15.95;;;8.95;;
75689;SDS011;64303;53.118;9.044;2023-04-25T00:32:29;14.40;;;9.55;;
75689;SDS011;64303;53.118;9.044;2023-04-25T00:34:56;19.17;;;9.70;;
75689;SDS011;64303;53.118;9.044;2023-04-25T00:37:23;14.25;;;7.65;;
75689;SDS011;64303;53.118;9.044;2023-04-25T00:39:50;13.73;;;9.30;;
75689;SDS011;64303;53.118;9.044;2023-04-25T00:42:19;15.63;;;9.02;;
75689;SDS011;64303;53.118;9.044;2023-04-25T00:44:46;12.07;;;8.38;;
75689;SDS011;64303;53.118;9.044;2023-04-25T00:47:15;14.13;;;8.50;;
75689;SDS011;64303;53.118;9.044;2023-04-25T00:52:09;18.00;;;10.30;;
75689;SDS011;64303;53.118;9.044;2023-04-25T00:54:35;19.80;;;9.63;;
75689;SDS011;64303;53.118;9.044;2023-04-25T00:57:02;16.30;;;9.85;;
75689;SDS011;64303;53.118;9.044;2023-04-25T00:59:29;10.82;;;7.65;;
75689;SDS011;64303;53.118;9.044;2023-04-25T01:01:56;13.73;;;7.18;;
75689;SDS011;64303;53.118;9.044;2023-04-25T01:04:25;13.85;;;5.57;;
75689;SDS011;64303;53.118;9.044;2023-04-25T01:06:53;11.38;;;8.15;;
75689;SDS011;64303;53.118;9.044;2023-04-25T01:09:20;14.65;;;6.20;;
75689;SDS011;64303;53.118;9.044;2023-04-25T01:14:15;21.70;;;8.60;;
75689;SDS011;64303;53.118;9.044;2023-04-25T01:16:42;12.10;;;7.65;;
75689;SDS011;64303;53.118;9.044;2023-04-25T01:19:10;13.73;;;9.50;;
75689;SDS011;64303;53.118;9.044;2023-04-25T01:21:38;12.80;;;10.27;;
75689;SDS011;64303;53.118;9.044;2023-04-25T01:24:05;12.02;;;5.45;;
75689;SDS011;64303;53.118;9.044;2023-04-25T01:26:33;20.13;;;9.85;;
75689;SDS011;64303;53.118;9.044;2023-04-25T01:29:00;13.65;;;4.88;;
75689;SDS011;64303;53.118;9.044;2023-04-25T01:31:27;12.15;;;5.95;;
75689;SDS011;64303;53.118;9.044;2023-04-25T01:33:54;14.88;;;5.43;;
75689;SDS011;64303;53.118;9.044;2023-04-25T01:36:20;13.10;;;6.72;;
75689;SDS011;64303;53.118;9.044;2023-04-25T01:41:17;21.88;;;10.55;;
75689;SDS011;64303;53.118;9.044;2023-04-25T01:43:44;12.60;;;9.88;;
75689;SDS011;64303;53.118;9.044;2023-04-25T01:46:12;11.77;;;9.98;;
75689;SDS011;64303;53.118;9.044;2023-04-25T01:48:38;13.02;;;7.60;;
75689;SDS011;64303;53.118;9.044;2023-04-25T01:51:06;17.17;;;8.57;;
75689;SDS011;64303;53.118;9.044;2023-04-25T01:53:32;23.45;;;8.75;;
75689;SDS011;64303;53.118;9.044;2023-04-25T01:56:03;23.02;;;9.35;;
75689;SDS011;64303;53.118;9.044;2023-04-25T01:58:33;18.23;;;8.38;;
75689;SDS011;64303;53.118;9.044;2023-04-25T02:01:03;14.45;;;9.20;;
75689;SDS011;64303;53.118;9.044;2023-04-25T02:03:38;15.65;;;9.15;;
75689;SDS011;64303;53.118;9.044;2023-04-25T02:06:09;14.48;;;9.32;;
75689;SDS011;64303;53.118;9.044;2023-04-25T02:08:41;10.98;;;7.03;;
75689;SDS011;64303;53.118;9.044;2023-04-25T02:11:11;13.90;;;9.60;;
75689;SDS011;64303;53.118;9.044;2023-04-25T02:13:43;12.27;;;6.93;;
75689;SDS011;64303;53.118;9.044;2023-04-25T02:16:29;16.70;;;8.43;;
75689;SDS011;64303;53.118;9.044;2023-04-25T02:18:56;15.07;;;7.40;;
75689;SDS011;64303;53.118;9.044;2023-04-25T02:21:23;17.35;;;9.60;;
75689;SDS011;64303;53.118;9.044;2023-04-25T02:23:49;12.02;;;9.60;;
75689;SDS011;64303;53.118;9.044;2023-04-25T02:26:18;15.95;;;8.45;;
75689;SDS011;64303;53.118;9.044;2023-04-25T02:28:46;13.88;;;8.48;;
75689;SDS011;64303;53.118;9.044;2023-04-25T02:31:13;14.63;;;8.38;;
75689;SDS011;64303;53.118;9.044;2023-04-25T02:33:39;12.15;;;8.43;;
75689;SDS011;64303;53.118;9.044;2023-04-25T02:36:06;19.35;;;8.13;;
75689;SDS011;64303;53.118;9.044;2023-04-25T02:38:33;19.73;;;8.05;;
75689;SDS011;64303;53.118;9.044;2023-04-25T02:41:00;16.60;;;8.55;;
75689;SDS011;64303;53.118;9.044;2023-04-25T02:43:28;14.40;;;10.20;;
75689;SDS011;64303;53.118;9.044;2023-04-25T02:45:55;11.88;;;7.22;;
75689;SDS011;64303;53.118;9.044;2023-04-25T02:48:21;12.68;;;9.57;;
75689;SDS011;64303;53.118;9.044;2023-04-25T02:50:48;12.00;;;7.90;;
75689;SDS011;64303;53.118;9.044;2023-04-25T02:53:15;19.63;;;9.85;;
75689;SDS011;64303;53.118;9.044;2023-04-25T02:55:46;13.45;;;8.15;;
75689;SDS011;64303;53.118;9.044;2023-04-25T02:58:13;11.02;;;10.05;;
75689;SDS011;64303;53.118;9.044;2023-04-25T03:00:48;12.95;;;6.88;;
75689;SDS011;64303;53.118;9.044;2023-04-25T03:03:16;10.40;;;7.97;;
75689;SDS011;64303;53.118;9.044;2023-04-25T03:05:43;17.73;;;7.82;;
75689;SDS011;64303;53.118;9.044;2023-04-25T03:08:10;14.43;;;5.93;;
75689;SDS011;64303;53.118;9.044;2023-04-25T03:10:38;16.63;;;9.23;;
75689;SDS011;64303;53.118;9.044;2023-04-25T03:13:07;11.65;;;8.60;;
75689;SDS011;64303;53.118;9.044;2023-04-25T03:15:34;21.52;;;9.77;;
75689;SDS011;64303;53.118;9.044;2023-04-25T03:18:02;30.25;;;9.65;;
75689;SDS011;64303;53.118;9.044;2023-04-25T03:20:29;15.95;;;8.38;;
75689;SDS011;64303;53.118;9.044;2023-04-25T03:22:56;10.65;;;8.15;;
75689;SDS011;64303;53.118;9.044;2023-04-25T03:25:23;18.27;;;9.35;;
75689;SDS011;64303;53.118;9.044;2023-04-25T03:27:49;16.27;;;8.70;;
75689;SDS011;64303;53.118;9.044;2023-04-25T03:30:16;12.88;;;8.55;;
75689;SDS011;64303;53.118;9.044;2023-04-25T03:32:43;15.63;;;6.75;;
75689;SDS011;64303;53.118;9.044;2023-04-25T03:35:16;15.45;;;10.05;;
75689;SDS011;64303;53.118;9.044;2023-04-25T03:37:42;15.43;;;10.32;;
75689;SDS011;64303;53.118;9.044;2023-04-25T03:40:11;8.38;;;7.30;;
75689;SDS011;64303;53.118;9.044;2023-04-25T03:43:01;11.68;;;9.43;;
75689;SDS011;64303;53.118;9.044;2023-04-25T03:45:28;13.98;;;6.65;;
75689;SDS011;64303;53.118;9.044;2023-04-25T03:47:55;15.75;;;9.82;;
75689;SDS011;64303;53.118;9.044;2023-04-25T03:50:23;12.57;;;5.30;;
75689;SDS011;64303;53.118;9.044;2023-04-25T03:52:50;23.92;;;6.82;;
75689;SDS011;64303;53.118;9.044;2023-04-25T03:55:17;7.85;;;6.70;;
75689;SDS011;64303;53.118;9.044;2023-04-25T03:57:44;10.90;;;4.80;;
75689;SDS011;64303;53.118;9.044;2023-04-25T04:00:11;8.80;;;7.90;;
75689;SDS011;64303;53.118;9.044;2023-04-25T04:02:39;10.50;;;8.25;;
75689;SDS011;64303;53.118;9.044;2023-04-25T04:05:07;15.90;;;10.70;;
75689;SDS011;64303;53.118;9.044;2023-04-25T04:07:38;17.33;;;9.38;;
75689;SDS011;64303;53.118;9.044;2023-04-25T04:10:09;11.13;;;8.45;;
75689;SDS011;64303;53.118;9.044;2023-04-25T04:12:38;19.30;;;9.88;;
75689;SDS011;64303;53.118;9.044;2023-04-25T04:15:05;16.40;;;7.20;;
75689;SDS011;64303;53.118;9.044;2023-04-25T04:17:33;9.52;;;5.78;;
75689;SDS011;64303;53.118;9.044;2023-04-25T04:20:00;11.18;;;8.13;;
75689;SDS011;64303;53.118;9.044;2023-04-25T04:22:30;19.63;;;8.20;;
75689;SDS011;64303;53.118;9.044;2023-04-25T04:25:01;10.43;;;6.70;;
75689;SDS011;64303;53.118;9.044;2023-04-25T04:27:49;18.15;;;9.25;;
75689;SDS011;64303;53.118;9.044;2023-04-25T04:30:40;9.07;;;5.72;;
75689;SDS011;64303;53.118;9.044;2023-04-25T04:33:07;13.38;;;5.43;;
75689;SDS011;64303;53.118;9.044;2023-04-25T04:35:35;17.00;;;8.82;;
75689;SDS011;64303;53.118;9.044;2023-04-25T04:38:01;14.57;;;8.80;;
75689;SDS011;64303;53.118;9.044;2023-04-25T04:40:34;9.48;;;7.20;;
75689;SDS011;64303;53.118;9.044;2023-04-25T04:46:01;11.88;;;10.68;;
75689;SDS011;64303;53.118;9.044;2023-04-25T04:48:53;10.45;;;5.22;;
75689;SDS011;64303;53.118;9.044;2023-04-25T04:51:38;12.07;;;7.25;;
75689;SDS011;64303;53.118;9.044;2023-04-25T04:54:16;13.35;;;7.22;;
75689;SDS011;64303;53.118;9.044;2023-04-25T04:56:46;13.25;;;7.25;;
75689;SDS011;64303;53.118;9.044;2023-04-25T04:59:23;10.02;;;7.55;;
75689;SDS011;64303;53.118;9.044;2023-04-25T05:02:19;11.25;;;8.65;;
75689;SDS011;64303;53.118;9.044;2023-04-25T05:04:59;11.45;;;8.20;;
75689;SDS011;64303;53.118;9.044;2023-04-25T05:07:36;10.35;;;9.32;;
75689;SDS011;64303;53.118;9.044;2023-04-25T05:10:22;10.77;;;8.20;;
75689;SDS011;64303;53.118;9.044;2023-04-25T05:13:08;13.80;;;8.65;;
75689;SDS011;64303;53.118;9.044;2023-04-25T05:15:35;10.10;;;7.63;;
75689;SDS011;64303;53.118;9.044;2023-04-25T05:18:32;8.35;;;6.93;;
75689;SDS011;64303;53.118;9.044;2023-04-25T05:21:24;10.57;;;7.10;;
75689;SDS011;64303;53.118;9.044;2023-04-25T05:24:15;11.23;;;8.98;;
75689;SDS011;64303;53.118;9.044;2023-04-25T05:27:02;9.70;;;4.13;;
75689;SDS011;64303;53.118;9.044;2023-04-25T05:29:45;8.82;;;7.45;;
75689;SDS011;64303;53.118;9.044;2023-04-25T05:32:38;9.13;;;5.97;;
75689;SDS011;64303;53.118;9.044;2023-04-25T05:35:06;11.25;;;8.00;;
75689;SDS011;64303;53.118;9.044;2023-04-25T05:37:40;11.50;;;7.65;;
75689;SDS011;64303;53.118;9.044;2023-04-25T05:40:10;8.45;;;7.43;;
75689;SDS011;64303;53.118;9.044;2023-04-25T05:42:51;8.57;;;4.45;;
75689;SDS011;64303;53.118;9.044;2023-04-25T05:45:42;8.75;;;7.50;;
75689;SDS011;64303;53.118;9.044;2023-04-25T05:48:29;9.82;;;7.00;;
75689;SDS011;64303;53.118;9.044;2023-04-25T05:51:05;7.93;;;7.15;;
75689;SDS011;64303;53.118;9.044;2023-04-25T05:53:58;8.65;;;7.90;;
75689;SDS011;64303;53.118;9.044;2023-04-25T05:56:26;8.23;;;7.50;;
75689;SDS011;64303;53.118;9.044;2023-04-25T05:58:53;9.80;;;8.77;;
75689;SDS011;64303;53.118;9.044;2023-04-25T06:01:22;11.73;;;10.45;;
75689;SDS011;64303;53.118;9.044;2023-04-25T06:03:49;14.45;;;8.07;;
75689;SDS011;64303;53.118;9.044;2023-04-25T06:06:16;11.18;;;6.03;;
75689;SDS011;64303;53.118;9.044;2023-04-25T06:08:43;8.05;;;4.63;;
75689;SDS011;64303;53.118;9.044;2023-04-25T06:11:11;8.43;;;7.72;;
75689;SDS011;64303;53.118;9.044;2023-04-25T06:13:37;9.25;;;6.55;;
75689;SDS011;64303;53.118;9.044;2023-04-25T06:16:05;13.25;;;8.85;;
75689;SDS011;64303;53.118;9.044;2023-04-25T06:18:33;9.18;;;4.13;;
75689;SDS011;64303;53.118;9.044;2023-04-25T06:21:01;8.73;;;7.72;;
75689;SDS011;64303;53.118;9.044;2023-04-25T06:23:27;8.25;;;5.82;;
75689;SDS011;64303;53.118;9.044;2023-04-25T06:26:06;9.00;;;7.30;;
75689;SDS011;64303;53.118;9.044;2023-04-25T06:28:35;12.85;;;7.45;;
75689;SDS011;64303;53.118;9.044;2023-04-25T06:31:04;7.25;;;4.43;;
75689;SDS011;64303;53.118;9.044;2023-04-25T06:33:30;14.45;;;7.88;;
75689;SDS011;64303;53.118;9.044;2023-04-25T06:35:58;8.02;;;5.57;;
75689;SDS011;64303;53.118;9.044;2023-04-25T06:38:26;12.35;;;7.95;;
75689;SDS011;64303;53.118;9.044;2023-04-25T06:40:55;10.25;;;6.60;;
75689;SDS011;64303;53.118;9.044;2023-04-25T06:43:22;9.43;;;8.55;;
75689;SDS011;64303;53.118;9.044;2023-04-25T06:46:04;7.40;;;6.70;;
75689;SDS011;64303;53.118;9.044;2023-04-25T06:48:34;11.60;;;7.53;;
75689;SDS011;64303;53.118;9.044;2023-04-25T06:51:02;8.27;;;7.47;;
75689;SDS011;64303;53.118;9.044;2023-04-25T06:53:29;10.20;;;7.07;;
75689;SDS011;64303;53.118;9.044;2023-04-25T06:55:59;14.52;;;8.50;;
75689;SDS011;64303;53.118;9.044;2023-04-25T06:58:36;7.95;;;6.57;;
75689;SDS011;64303;53.118;9.044;2023-04-25T07:01:13;12.77;;;7.80;;
75689;SDS011;64303;53.118;9.044;2023-04-25T07:03:40;10.88;;;6.20;;
75689;SDS011;64303;53.118;9.044;2023-04-25T07:06:14;9.55;;;6.72;;
75689;SDS011;64303;53.118;9.044;2023-04-25T07:08:40;10.85;;;7.07;;
75689;SDS011;64303;53.118;9.044;2023-04-25T07:11:07;9.63;;;8.35;;
75689;SDS011;64303;53.118;9.044;2023-04-25T07:13:35;9.75;;;9.15;;
75689;SDS011;64303;53.118;9.044;2023-04-25T07:16:02;6.85;;;6.28;;
75689;SDS011;64303;53.118;9.044;2023-04-25T07:18:31;7.10;;;6.03;;
75689;SDS011;64303;53.118;9.044;2023-04-25T07:20:59;9.95;;;8.98;;
75689;SDS011;64303;53.118;9.044;2023-04-25T07:23:27;12.18;;;7.75;;
75689;SDS011;64303;53.118;9.044;2023-04-25T07:25:57;8.07;;;7.40;;
75689;SDS011;64303;53.118;9.044;2023-04-25T07:28:25;8.18;;;7.55;;
75689;SDS011;64303;53.118;9.044;2023-04-25T07:30:51;10.40;;;7.63;;
75689;SDS011;64303;53.118;9.044;2023-04-25T07:33:18;12.30;;;6.13;;
75689;SDS011;64303;53.118;9.044;2023-04-25T07:35:46;6.32;;;4.03;;
75689;SDS011;64303;53.118;9.044;2023-04-25T07:38:13;8.07;;;5.70;;
75689;SDS011;64303;53.118;9.044;2023-04-25T07:40:41;6.53;;;6.03;;
75689;SDS011;64303;53.118;9.044;2023-04-25T07:43:10;6.68;;;6.07;;
75689;SDS011;64303;53.118;9.044;2023-04-25T07:45:45;6.75;;;5.13;;
75689;SDS011;64303;53.118;9.044;2023-04-25T07:48:16;7.10;;;5.53;;
75689;SDS011;64303;53.118;9.044;2023-04-25T07:50:43;9.13;;;8.35;;
75689;SDS011;64303;53.118;9.044;2023-04-25T07:53:10;10.23;;;6.88;;
75689;SDS011;64303;53.118;9.044;2023-04-25T07:55:45;9.35;;;8.02;;
75689;SDS011;64303;53.118;9.044;2023-04-25T07:58:16;9.43;;;4.97;;
75689;SDS011;64303;53.118;9.044;2023-04-25T08:00:47;11.25;;;6.75;;
75689;SDS011;64303;53.118;9.044;2023-04-25T08:03:27;8.02;;;7.28;;
75689;SDS011;64303;53.118;9.044;2023-04-25T08:05:54;5.15;;;3.63;;
75689;SDS011;64303;53.118;9.044;2023-04-25T08:08:22;15.95;;;6.75;;
75689;SDS011;64303;53.118;9.044;2023-04-25T08:10:51;9.48;;;7.45;;
75689;SDS011;64303;53.118;9.044;2023-04-25T08:13:17;11.88;;;5.55;;
75689;SDS011;64303;53.118;9.044;2023-04-25T08:15:44;8.15;;;6.75;;
75689;SDS011;64303;53.118;9.044;2023-04-25T08:18:11;7.68;;;6.97;;
75689;SDS011;64303;53.118;9.044;2023-04-25T08:20:38;9.90;;;6.22;;
75689;SDS011;64303;53.118;9.044;2023-04-25T08:23:06;9.38;;;3.67;;
75689;SDS011;64303;53.118;9.044;2023-04-25T08:25:51;10.45;;;7.07;;
75689;SDS011;64303;53.118;9.044;2023-04-25T08:28:21;7.45;;;6.75;;
75689;SDS011;64303;53.118;9.044;2023-04-25T08:30:48;6.57;;;5.97;;
75689;SDS011;64303;53.118;9.044;2023-04-25T08:33:16;7.45;;;6.95;;
75689;SDS011;64303;53.118;9.044;2023-04-25T08:35:58;8.27;;;3.70;;
75689;SDS011;64303;53.118;9.044;2023-04-25T08:38:26;6.88;;;6.28;;
75689;SDS011;64303;53.118;9.044;2023-04-25T08:40:54;8.05;;;6.97;;
75689;SDS011;64303;53.118;9.044;2023-04-25T08:43:23;9.85;;;9.15;;
75689;SDS011;64303;53.118;9.044;2023-04-25T08:48:29;7.68;;;5.93;;
75689;SDS011;64303;53.118;9.044;2023-04-25T08:50:59;6.80;;;3.15;;
75689;SDS011;64303;53.118;9.044;2023-04-25T08:53:29;8.80;;;7.70;;
75689;SDS011;64303;53.118;9.044;2023-04-25T08:56:00;4.93;;;2.38;;
75689;SDS011;64303;53.118;9.044;2023-04-25T08:58:32;10.30;;;7.72;;
75689;SDS011;64303;53.118;9.044;2023-04-25T09:01:00;6.82;;;3.95;;
75689;SDS011;64303;53.118;9.044;2023-04-25T09:03:30;9.25;;;8.50;;
75689;SDS011;64303;53.118;9.044;2023-04-25T09:05:57;6.78;;;5.07;;
75689;SDS011;64303;53.118;9.044;2023-04-25T09:08:24;7.32;;;6.53;;
75689;SDS011;64303;53.118;9.044;2023-04-25T09:10:51;11.55;;;6.43;;
75689;SDS011;64303;53.118;9.044;2023-04-25T09:13:25;6.22;;;5.55;;
75689;SDS011;64303;53.118;9.044;2023-04-25T09:16:19;7.03;;;6.35;;
75689;SDS011;64303;53.118;9.044;2023-04-25T09:19:07;7.63;;;6.40;;
75689;SDS011;64303;53.118;9.044;2023-04-25T09:21:48;6.68;;;6.18;;
75689;SDS011;64303;53.118;9.044;2023-04-25T09:24:15;7.00;;;5.68;;
75689;SDS011;64303;53.118;9.044;2023-04-25T09:26:41;5.97;;;4.95;;
75689;SDS011;64303;53.118;9.044;2023-04-25T09:29:10;7.65;;;6.95;;
75689;SDS011;64303;53.118;9.044;2023-04-25T09:31:40;10.57;;;5.82;;
75689;SDS011;64303;53.118;9.044;2023-04-25T09:34:09;7.30;;;6.72;;
75689;SDS011;64303;53.118;9.044;2023-04-25T09:36:43;6.97;;;6.38;;
75689;SDS011;64303;53.118;9.044;2023-04-25T09:39:32;6.25;;;5.40;;
75689;SDS011;64303;53.118;9.044;2023-04-25T09:42:07;4.78;;;4.38;;
75689;SDS011;64303;53.118;9.044;2023-04-25T09:44:37;7.93;;;6.43;;
75689;SDS011;64303;53.118;9.044;2023-04-25T09:47:09;10.45;;;6.15;;
75689;SDS011;64303;53.118;9.044;2023-04-25T09:49:38;7.05;;;6.57;;
75689;SDS011;64303;53.118;9.044;2023-04-25T09:52:09;8.48;;;7.82;;
75689;SDS011;64303;53.118;9.044;2023-04-25T09:54:47;5.28;;;4.82;;
75689;SDS011;64303;53.118;9.044;2023-04-25T09:57:22;6.68;;;5.97;;
75689;SDS011;64303;53.118;9.044;2023-04-25T09:59:53;7.65;;;6.55;;
75689;SDS011;64303;53.118;9.044;2023-04-25T10:02:23;7.70;;;7.18;;
75689;SDS011;64303;53.118;9.044;2023-04-25T10:04:54;8.05;;;7.43;;
75689;SDS011;64303;53.118;9.044;2023-04-25T10:07:29;9.25;;;8.55;;
75689;SDS011;64303;53.118;9.044;2023-04-25T10:09:58;8.05;;;7.28;;
75689;SDS011;64303;53.118;9.044;2023-04-25T10:12:27;7.10;;;6.50;;
75689;SDS011;64303;53.118;9.044;2023-04-25T10:14:55;6.07;;;5.57;;
75689;SDS011;64303;53.118;9.044;2023-04-25T10:19:48;7.53;;;6.90;;
75689;SDS011;64303;53.118;9.044;2023-04-25T10:22:17;8.00;;;5.45;;
75689;SDS011;64303;53.118;9.044;2023-04-25T10:24:45;6.47;;;6.03;;
75689;SDS011;64303;53.118;9.044;2023-04-25T10:27:12;6.22;;;4.32;;
75689;SDS011;64303;53.118;9.044;2023-04-25T10:29:39;7.97;;;5.78;;
75689;SDS011;64303;53.118;9.044;2023-04-25T10:32:10;4.03;;;3.72;;
75689;SDS011;64303;53.118;9.044;2023-04-25T10:34:40;7.13;;;5.53;;
75689;SDS011;64303;53.118;9.044;2023-04-25T10:37:10;6.18;;;4.40;;
75689;SDS011;64303;53.118;9.044;2023-04-25T10:39:38;6.50;;;6.00;;
75689;SDS011;64303;53.118;9.044;2023-04-25T10:42:05;5.18;;;4.40;;
75689;SDS011;64303;53.118;9.044;2023-04-25T10:44:33;6.95;;;6.35;;
75689;SDS011;64303;53.118;9.044;2023-04-25T10:47:01;7.07;;;6.47;;
75689;SDS011;64303;53.118;9.044;2023-04-25T10:49:32;5.60;;;4.93;;
75689;SDS011;64303;53.118;9.044;2023-04-25T10:52:13;5.40;;;4.97;;
75689;SDS011;64303;53.118;9.044;2023-04-25T10:54:46;6.90;;;5.18;;
75689;SDS011;64303;53.118;9.044;2023-04-25T10:57:26;10.10;;;5.53;;
75689;SDS011;64303;53.118;9.044;2023-04-25T11:02:20;7.63;;;6.22;;
75689;SDS011;64303;53.118;9.044;2023-04-25T11:04:48;4.28;;;3.72;;
75689;SDS011;64303;53.118;9.044;2023-04-25T11:07:19;6.43;;;5.85;;
75689;SDS011;64303;53.118;9.044;2023-04-25T11:09:51;5.07;;;4.53;;
75689;SDS011;64303;53.118;9.044;2023-04-25T11:12:18;5.88;;;5.03;;
75689;SDS011;64303;53.118;9.044;2023-04-25T11:14:44;6.72;;;6.07;;
75689;SDS011;64303;53.118;9.044;2023-04-25T11:17:12;6.70;;;5.55;;
75689;SDS011;64303;53.118;9.044;2023-04-25T11:19:38;6.75;;;6.28;;
75689;SDS011;64303;53.118;9.044;2023-04-25T11:22:06;5.18;;;4.68;;
75689;SDS011;64303;53.118;9.044;2023-04-25T11:24:33;7.15;;;5.60;;
75689;SDS011;64303;53.118;9.044;2023-04-25T11:27:02;6.40;;;5.53;;
75689;SDS011;64303;53.118;9.044;2023-04-25T11:29:29;5.90;;;5.30;;
75689;SDS011;64303;53.118;9.044;2023-04-25T11:31:57;5.75;;;5.18;;
75689;SDS011;64303;53.118;9.044;2023-04-25T11:34:23;6.65;;;5.00;;
75689;SDS011;64303;53.118;9.044;2023-04-25T11:36:51;6.60;;;6.10;;
75689;SDS011;64303;53.118;9.044;2023-04-25T11:39:19;4.72;;;4.32;;
75689;SDS011;64303;53.118;9.044;2023-04-25T11:41:46;5.85;;;5.25;;
75689;SDS011;64303;53.118;9.044;2023-04-25T11:44:15;6.38;;;5.82;;
75689;SDS011;64303;53.118;9.044;2023-04-25T11:46:42;8.20;;;4.75;;
75689;SDS011;64303;53.118;9.044;2023-04-25T11:49:09;5.90;;;5.38;;
75689;SDS011;64303;53.118;9.044;2023-04-25T11:51:39;7.50;;;6.72;;
75689;SDS011;64303;53.118;9.044;2023-04-25T11:54:06;7.28;;;6.63;;
75689;SDS011;64303;53.118;9.044;2023-04-25T11:56:34;8.23;;;6.28;;
75689;SDS011;64303;53.118;9.044;2023-04-25T11:59:02;6.03;;;5.60;;
75689;SDS011;64303;53.118;9.044;2023-04-25T12:01:30;6.28;;;5.68;;
75689;SDS011;64303;53.118;9.044;2023-04-25T12:03:57;4.05;;;3.53;;
75689;SDS011;64303;53.118;9.044;2023-04-25T12:06:28;7.45;;;5.55;;
75689;SDS011;64303;53.118;9.044;2023-04-25T12:08:59;7.97;;;7.40;;
75689;SDS011;64303;53.118;9.044;2023-04-25T12:11:26;6.82;;;6.32;;
75689;SDS011;64303;53.118;9.044;2023-04-25T12:13:54;7.40;;;6.90;;
75689;SDS011;64303;53.118;9.044;2023-04-25T12:18:48;6.75;;;6.28;;
75689;SDS011;64303;53.118;9.044;2023-04-25T12:21:18;5.70;;;5.30;;
75689;SDS011;64303;53.118;9.044;2023-04-25T12:23:46;7.60;;;5.85;;
75689;SDS011;64303;53.118;9.044;2023-04-25T12:26:13;4.82;;;4.43;;
75689;SDS011;64303;53.118;9.044;2023-04-25T12:28:39;5.50;;;4.53;;
75689;SDS011;64303;53.118;9.044;2023-04-25T12:31:08;6.35;;;5.78;;
75689;SDS011;64303;53.118;9.044;2023-04-25T12:33:34;5.25;;;4.85;;
75689;SDS011;64303;53.118;9.044;2023-04-25T12:36:02;6.25;;;5.75;;
75689;SDS011;64303;53.118;9.044;2023-04-25T12:38:35;7.10;;;5.93;;
75689;SDS011;64303;53.118;9.044;2023-04-25T12:41:02;5.45;;;4.97;;
75689;SDS011;64303;53.118;9.044;2023-04-25T12:43:29;5.68;;;5.15;;
75689;SDS011;64303;53.118;9.044;2023-04-25T12:45:56;5.90;;;5.40;;
75689;SDS011;64303;53.118;9.044;2023-04-25T12:48:24;5.85;;;5.45;;
75689;SDS011;64303;53.118;9.044;2023-04-25T12:50:51;7.53;;;6.72;;
75689;SDS011;64303;53.118;9.044;2023-04-25T12:53:18;5.30;;;4.90;;
75689;SDS011;64303;53.118;9.044;2023-04-25T12:55:46;6.82;;;6.32;;
75689;SDS011;64303;53.118;9.044;2023-04-25T12:58:12;5.85;;;5.35;;
75689;SDS011;64303;53.118;9.044;2023-04-25T13:00:39;7.72;;;6.65;;
75689;SDS011;64303;53.118;9.044;2023-04-25T13:03:06;8.13;;;4.60;;
75689;SDS011;64303;53.118;9.044;2023-04-25T13:05:34;5.32;;;4.82;;
75689;SDS011;64303;53.118;9.044;2023-04-25T13:08:01;5.78;;;3.22;;
75689;SDS011;64303;53.118;9.044;2023-04-25T13:10:28;5.53;;;4.78;;
75689;SDS011;64303;53.118;9.044;2023-04-25T13:12:54;6.22;;;4.80;;
75689;SDS011;64303;53.118;9.044;2023-04-25T13:15:22;7.70;;;7.07;;
75689;SDS011;64303;53.118;9.044;2023-04-25T13:17:48;6.55;;;5.95;;
75689;SDS011;64303;53.118;9.044;2023-04-25T13:20:15;4.55;;;3.35;;
75689;SDS011;64303;53.118;9.044;2023-04-25T13:22:45;6.50;;;5.47;;
75689;SDS011;64303;53.118;9.044;2023-04-25T13:25:12;6.72;;;6.28;;
75689;SDS011;64303;53.118;9.044;2023-04-25T13:27:38;8.23;;;5.55;;
75689;SDS011;64303;53.118;9.044;2023-04-25T13:30:06;6.43;;;5.93;;
75689;SDS011;64303;53.118;9.044;2023-04-25T13:32:34;6.53;;;5.80;;
75689;SDS011;64303;53.118;9.044;2023-04-25T13:35:01;7.13;;;6.50;;
75689;SDS011;64303;53.118;9.044;2023-04-25T13:37:28;6.18;;;5.60;;
75689;SDS011;64303;53.118;9.044;2023-04-25T13:39:57;7.00;;;6.10;;
75689;SDS011;64303;53.118;9.044;2023-04-25T13:42:23;10.32;;;4.43;;
75689;SDS011;64303;53.118;9.044;2023-04-25T13:44:50;8.10;;;4.95;;
75689;SDS011;64303;53.118;9.044;2023-04-25T13:47:17;7.97;;;7.22;;
75689;SDS011;64303;53.118;9.044;2023-04-25T13:49:43;5.88;;;5.38;;
75689;SDS011;64303;53.118;9.044;2023-04-25T13:52:10;7.57;;;6.70;;
75689;SDS011;64303;53.118;9.044;2023-04-25T13:54:37;6.20;;;5.13;;
75689;SDS011;64303;53.118;9.044;2023-04-25T13:57:04;8.27;;;7.57;;
75689;SDS011;64303;53.118;9.044;2023-04-25T13:59:32;7.80;;;4.72;;
75689;SDS011;64303;53.118;9.044;2023-04-25T14:01:58;7.65;;;4.40;;
75689;SDS011;64303;53.118;9.044;2023-04-25T14:04:25;5.00;;;4.50;;
75689;SDS011;64303;53.118;9.044;2023-04-25T14:06:52;6.28;;;5.72;;
75689;SDS011;64303;53.118;9.044;2023-04-25T14:09:19;6.25;;;5.78;;
75689;SDS011;64303;53.118;9.044;2023-04-25T14:11:50;5.40;;;4.90;;
75689;SDS011;64303;53.118;9.044;2023-04-25T14:14:18;6.15;;;5.78;;
75689;SDS011;64303;53.118;9.044;2023-04-25T14:16:45;5.45;;;5.03;;
75689;SDS011;64303;53.118;9.044;2023-04-25T14:19:13;6.05;;;5.65;;
75689;SDS011;64303;53.118;9.044;2023-04-25T14:21:40;6.63;;;5.82;;
75689;SDS011;64303;53.118;9.044;2023-04-25T14:24:07;7.00;;;6.35;;
75689;SDS011;64303;53.118;9.044;2023-04-25T14:26:34;7.18;;;6.57;;
75689;SDS011;64303;53.118;9.044;2023-04-25T14:29:02;8.93;;;8.18;;
75689;SDS011;64303;53.118;9.044;2023-04-25T14:31:30;5.85;;;4.72;;
75689;SDS011;64303;53.118;9.044;2023-04-25T14:33:57;5.70;;;5.30;;
75689;SDS011;64303;53.118;9.044;2023-04-25T14:36:23;6.28;;;5.78;;
75689;SDS011;64303;53.118;9.044;2023-04-25T14:41:18;6.22;;;5.70;;
75689;SDS011;64303;53.118;9.044;2023-04-25T14:43:45;8.40;;;5.55;;
75689;SDS011;64303;53.118;9.044;2023-04-25T14:46:11;7.15;;;5.72;;
75689;SDS011;64303;53.118;9.044;2023-04-25T14:48:39;6.97;;;6.35;;
75689;SDS011;64303;53.118;9.044;2023-04-25T14:51:06;6.88;;;6.45;;
75689;SDS011;64303;53.118;9.044;2023-04-25T14:53:33;7.78;;;7.18;;
75689;SDS011;64303;53.118;9.044;2023-04-25T14:55:59;7.05;;;6.63;;
75689;SDS011;64303;53.118;9.044;2023-04-25T14:58:26;6.35;;;5.95;;
75689;SDS011;64303;53.118;9.044;2023-04-25T15:00:53;6.57;;;5.97;;
75689;SDS011;64303;53.118;9.044;2023-04-25T15:03:20;5.38;;;5.00;;
75689;SDS011;64303;53.118;9.044;2023-04-25T15:05:48;6.68;;;6.28;;
75689;SDS011;64303;53.118;9.044;2023-04-25T15:08:14;6.57;;;6.18;;
75689;SDS011;64303;53.118;9.044;2023-04-25T15:10:41;5.07;;;4.63;;
75689;SDS011;64303;53.118;9.044;2023-04-25T15:13:08;6.32;;;5.93;;
75689;SDS011;64303;53.118;9.044;2023-04-25T15:15:35;6.47;;;5.75;;
75689;SDS011;64303;53.118;9.044;2023-04-25T15:18:02;6.72;;;5.97;;
75689;SDS011;64303;53.118;9.044;2023-04-25T15:20:29;7.50;;;7.05;;